Time;durP1;ratioP1;P1;durP2;ratioP2;P2;SDS_P1;SDS_P2;PMS_P1;PMS_P2;Temp;Humidity;BMP_temperature;BMP_pressure;BME280_temperature;BME280_humidity;BME280_pressure;Samples;Min_cycle;Max_cycle;Signal;HPM_P1;HPM_P2
2022/08/09 00:01:24;;;;;;;4.70;3.70;;;20.50;54.80;;;;;;5017913;28;20217;-71
2022/08/09 00:03:49;;;;;;;3.27;2.83;;;20.50;54.80;;;;;;5023858;28;20254;-72
2022/08/09 00:06:15;;;;;;;3.33;3.00;;;20.60;54.60;;;;;;5016362;28;20208;-73
2022/08/09 00:08:41;;;;;;;4.40;2.50;;;20.50;54.50;;;;;;5020295;28;20192;-73
2022/08/09 00:11:06;;;;;;;4.60;3.10;;;20.50;54.90;;;;;;5021715;28;20195;-73
2022/08/09 00:13:32;;;;;;;4.10;3.23;;;20.50;55.20;;;;;;5010550;28;20446;-71
2022/08/09 00:15:57;;;;;;;4.60;3.10;;;20.50;55.20;;;;;;5007027;28;20204;-71
2022/08/09 00:18:23;;;;;;;3.77;2.97;;;20.40;55.70;;;;;;4998382;28;20192;-74
2022/08/09 00:20:49;;;;;;;5.70;3.33;;;20.40;55.70;;;;;;5024566;28;20217;-71
2022/08/09 00:23:14;;;;;;;5.67;3.07;;;20.40;56.00;;;;;;5009450;28;20193;-73
2022/08/09 00:25:40;;;;;;;4.13;3.10;;;20.30;56.00;;;;;;5022244;28;20674;-72
2022/08/09 00:28:06;;;;;;;4.20;3.20;;;20.30;56.00;;;;;;5022810;28;20234;-71
2022/08/09 00:30:32;;;;;;;3.83;2.70;;;20.10;56.10;;;;;;5022610;28;20221;-72
2022/08/09 00:32:58;;;;;;;5.83;2.70;;;20.00;56.10;;;;;;5026722;28;20177;-74
2022/08/09 00:35:24;;;;;;;8.53;3.73;;;20.00;56.60;;;;;;5016729;28;20848;-73
2022/08/09 00:37:50;;;;;;;3.60;3.40;;;20.00;56.90;;;;;;5014091;28;20426;-71
2022/08/09 00:40:16;;;;;;;5.13;2.90;;;20.00;57.40;;;;;;5026118;28;20250;-74
2022/08/09 00:42:42;;;;;;;3.90;2.90;;;20.00;57.70;;;;;;5024472;28;20183;-73
2022/08/09 00:45:08;;;;;;;6.77;3.33;;;20.00;57.30;;;;;;5028984;28;20488;-73
2022/08/09 00:47:34;;;;;;;3.27;2.80;;;20.00;56.90;;;;;;5001303;28;20184;-71
2022/08/09 00:49:59;;;;;;;3.30;2.80;;;19.90;56.60;;;;;;5017214;28;20956;-72
2022/08/09 00:52:26;;;;;;;4.53;3.07;;;19.90;56.80;;;;;;5030239;28;20182;-72
2022/08/09 00:54:52;;;;;;;4.57;3.23;;;19.90;56.60;;;;;;5025925;28;20184;-72
2022/08/09 00:57:19;;;;;;;3.67;2.97;;;19.90;56.90;;;;;;5005578;28;20538;-72
2022/08/09 00:59:45;;;;;;;6.83;3.40;;;19.90;56.80;;;;;;5000793;28;20790;-73
2022/08/09 01:02:10;;;;;;;4.70;2.80;;;19.90;56.80;;;;;;5021230;28;20422;-72
2022/08/09 01:05:00;;;;;;;4.63;3.03;;;19.90;56.90;;;;;;5005821;28;20757;-72
2022/08/09 01:07:42;;;;;;;5.13;3.47;;;19.90;57.00;;;;;;5021480;28;20218;-72
2022/08/09 01:10:44;;;;;;;3.37;2.90;;;19.90;57.20;;;;;;5018110;28;20432;-71
2022/08/09 01:13:17;;;;;;;4.57;3.20;;;19.80;57.30;;;;;;4976698;28;20510;-72
2022/08/09 01:15:45;;;;;;;3.27;2.93;;;19.60;57.40;;;;;;5009719;28;20473;-72
2022/08/09 01:18:26;;;;;;;5.60;3.33;;;19.60;57.80;;;;;;5019834;28;20448;-72
2022/08/09 01:21:09;;;;;;;4.60;3.47;;;19.60;57.80;;;;;;5012032;28;20492;-73
2022/08/09 01:24:12;;;;;;;4.73;3.47;;;19.60;58.40;;;;;;5022473;28;20409;-72
2022/08/09 01:26:50;;;;;;;5.13;3.17;;;19.60;58.80;;;;;;5008578;28;20468;-72
2022/08/09 01:29:21;;;;;;;6.40;3.03;;;19.60;58.90;;;;;;5013594;28;20467;-72
2022/08/09 01:31:49;;;;;;;3.23;3.00;;;19.50;59.30;;;;;;5025524;28;20421;-71
2022/08/09 01:34:20;;;;;;;4.90;3.13;;;19.40;59.70;;;;;;5024866;28;20428;-71
2022/08/09 01:36:47;;;;;;;10.37;4.03;;;19.30;59.70;;;;;;5002948;28;20460;-72
2022/08/09 01:39:15;;;;;;;5.30;3.20;;;19.30;59.90;;;;;;5016722;28;20428;-73
2022/08/09 01:41:42;;;;;;;3.60;3.37;;;19.20;60.00;;;;;;5021435;28;20550;-72
2022/08/09 01:44:11;;;;;;;8.90;3.90;;;19.20;59.70;;;;;;5015262;28;20434;-72
2022/08/09 01:46:41;;;;;;;6.57;3.77;;;19.00;60.00;;;;;;5017670;28;20463;-70
2022/08/09 01:49:15;;;;;;;4.43;3.90;;;19.00;60.10;;;;;;5017733;28;20930;-71
2022/08/09 01:51:51;;;;;;;5.20;3.57;;;19.00;60.30;;;;;;5024617;28;20426;-70
2022/08/09 01:54:18;;;;;;;4.37;3.20;;;19.00;60.30;;;;;;5025025;28;20426;-71
2022/08/09 01:56:47;;;;;;;3.50;3.20;;;19.00;60.70;;;;;;5020077;28;20460;-69
2022/08/09 01:59:16;;;;;;;5.53;3.70;;;19.10;60.60;;;;;;5019652;28;20435;-70
2022/08/09 02:01:44;;;;;;;4.40;3.27;;;19.00;60.90;;;;;;5024094;28;20533;-70
2022/08/09 02:04:12;;;;;;;4.10;3.33;;;19.00;60.90;;;;;;5013144;28;20430;-72
2022/08/09 02:09:25;;;;;;;3.63;3.47;;;19.00;61.00;;;;;;5013081;28;20445;-72
2022/08/09 02:11:52;;;;;;;3.53;3.10;;;19.00;61.00;;;;;;5005997;28;20820;-72
2022/08/09 02:14:20;;;;;;;3.30;3.13;;;19.00;61.30;;;;;;5028347;28;20430;-70
2022/08/09 02:16:47;;;;;;;4.57;3.10;;;19.00;61.30;;;;;;5018255;28;20472;-71
2022/08/09 02:19:12;;;;;;;4.80;3.50;;;19.10;61.30;;;;;;5022711;28;20436;-70
2022/08/09 02:21:47;;;;;;;4.43;3.43;;;19.00;60.90;;;;;;5030417;28;20475;-71
2022/08/09 02:24:17;;;;;;;5.53;3.67;;;18.90;61.50;;;;;;5020528;28;20676;-72
2022/08/09 02:26:44;;;;;;;4.00;3.20;;;18.90;62.00;;;;;;5023739;28;20505;-70
2022/08/09 02:29:22;;;;;;;5.10;3.40;;;18.90;62.30;;;;;;5024805;28;20539;-71
2022/08/09 02:31:49;;;;;;;3.90;3.07;;;18.70;62.60;;;;;;5021288;28;20428;-71
2022/08/09 02:34:22;;;;;;;4.27;3.70;;;18.70;62.80;;;;;;5023408;28;20544;-71
2022/08/09 02:36:52;;;;;;;4.47;3.37;;;18.60;62.80;;;;;;5006204;28;20504;-71
2022/08/09 02:39:22;;;;;;;4.27;3.47;;;18.50;63.20;;;;;;5023420;28;20429;-71
2022/08/09 02:41:53;;;;;;;4.63;3.23;;;18.40;63.40;;;;;;5029177;28;20469;-72
2022/08/09 02:44:24;;;;;;;5.47;3.70;;;18.50;63.70;;;;;;5022969;28;20919;-71
2022/08/09 02:46:52;;;;;;;4.07;3.37;;;18.50;63.20;;;;;;5022394;28;20803;-73
2022/08/09 02:49:18;;;;;;;5.73;3.87;;;18.50;63.70;;;;;;5022434;28;20870;-71
2022/08/09 02:51:48;;;;;;;7.77;3.47;;;18.50;63.80;;;;;;5024415;28;20441;-72
2022/08/09 02:54:15;;;;;;;6.27;3.77;;;18.40;64.10;;;;;;5022265;28;20429;-71
2022/08/09 02:56:45;;;;;;;4.43;3.93;;;18.40;64.20;;;;;;5020900;28;20460;-71
2022/08/09 02:59:13;;;;;;;7.70;3.83;;;18.40;64.40;;;;;;5023018;28;20455;-72
2022/08/09 03:01:40;;;;;;;4.00;3.63;;;18.30;64.40;;;;;;5019533;28;20970;-72
2022/08/09 03:04:07;;;;;;;4.93;3.43;;;18.30;64.10;;;;;;5019494;28;20432;-72
2022/08/09 03:06:35;;;;;;;8.23;3.57;;;18.30;63.90;;;;;;5003334;28;20463;-71
2022/08/09 03:09:01;;;;;;;6.00;3.70;;;18.30;64.50;;;;;;5021118;28;21013;-71
2022/08/09 03:11:29;;;;;;;6.63;4.20;;;18.30;64.70;;;;;;5007818;28;20440;-72
2022/08/09 03:13:55;;;;;;;7.60;3.63;;;18.20;64.70;;;;;;5024796;28;20437;-71
2022/08/09 03:16:22;;;;;;;3.70;3.10;;;18.20;65.10;;;;;;5017744;28;20978;-70
2022/08/09 03:18:49;;;;;;;4.27;3.50;;;18.20;65.10;;;;;;5016552;28;20228;-71
2022/08/09 03:21:16;;;;;;;4.97;3.40;;;18.20;65.00;;;;;;5018690;28;20775;-72
2022/08/09 03:23:47;;;;;;;8.43;3.77;;;18.10;65.70;;;;;;5015677;28;20558;-71
2022/08/09 03:26:17;;;;;;;5.30;3.73;;;18.10;65.40;;;;;;5017303;28;20459;-71
2022/08/09 03:28:46;;;;;;;4.30;3.40;;;18.10;65.80;;;;;;5023292;28;20450;-72
2022/08/09 03:31:12;;;;;;;4.33;3.70;;;18.10;65.80;;;;;;5019122;28;20496;-71
2022/08/09 03:33:38;;;;;;;6.83;4.00;;;18.10;65.80;;;;;;5020179;28;20426;-71
2022/08/09 03:36:09;;;;;;;5.33;3.57;;;18.10;65.60;;;;;;5016686;28;20592;-71
2022/08/09 03:38:36;;;;;;;4.50;3.63;;;18.00;65.80;;;;;;5023354;28;20946;-71
2022/08/09 03:41:01;;;;;;;5.10;3.83;;;17.90;66.40;;;;;;5020774;28;20990;-71
2022/08/09 03:43:28;;;;;;;4.00;3.30;;;17.80;66.60;;;;;;5013292;28;20452;-71
2022/08/09 03:45:53;;;;;;;4.50;3.40;;;17.70;66.90;;;;;;5015509;28;20268;-71
2022/08/09 03:48:21;;;;;;;4.43;3.50;;;17.80;66.90;;;;;;5023599;28;20428;-72
2022/08/09 03:50:49;;;;;;;3.77;3.40;;;17.70;67.00;;;;;;5019872;28;20224;-72
2022/08/09 03:53:16;;;;;;;4.50;3.67;;;17.70;67.00;;;;;;5023029;28;20423;-71
2022/08/09 03:55:42;;;;;;;8.23;3.90;;;17.70;66.70;;;;;;5012891;28;20465;-71
2022/08/09 03:58:09;;;;;;;14.20;3.90;;;17.80;66.30;;;;;;5026048;28;20417;-72
2022/08/09 04:00:35;;;;;;;5.03;3.67;;;17.80;66.60;;;;;;5014315;28;20547;-73
2022/08/09 04:03:02;;;;;;;5.83;4.10;;;17.80;66.70;;;;;;5021828;28;20414;-73
2022/08/09 04:05:28;;;;;;;4.80;3.90;;;17.80;66.90;;;;;;5012482;28;20441;-71
2022/08/09 04:07:54;;;;;;;7.50;3.47;;;17.90;66.70;;;;;;5020953;28;20422;-71
2022/08/09 04:10:21;;;;;;;4.40;3.57;;;17.90;66.60;;;;;;5014329;28;20194;-72
2022/08/09 04:12:51;;;;;;;4.50;3.53;;;17.80;66.70;;;;;;5019153;28;20451;-72
2022/08/09 04:15:21;;;;;;;4.93;3.67;;;17.70;66.90;;;;;;5016631;28;20428;-71
2022/08/09 04:17:47;;;;;;;4.87;3.90;;;17.70;67.20;;;;;;5018592;28;20522;-72
2022/08/09 04:20:14;;;;;;;5.70;3.60;;;17.70;67.30;;;;;;5018706;28;20547;-73
2022/08/09 04:22:40;;;;;;;6.23;4.13;;;17.80;67.30;;;;;;5017706;28;21105;-73
2022/08/09 04:25:07;;;;;;;6.37;3.77;;;17.80;67.20;;;;;;5017395;28;20437;-72
2022/08/09 04:27:34;;;;;;;4.50;3.77;;;17.80;67.30;;;;;;5017796;28;20514;-72
2022/08/09 04:30:00;;;;;;;5.70;4.00;;;17.80;67.30;;;;;;5019097;28;20442;-72
2022/08/09 04:32:27;;;;;;;7.03;4.43;;;17.80;67.30;;;;;;5025026;28;20800;-72
2022/08/09 04:34:53;;;;;;;6.23;4.27;;;17.80;67.50;;;;;;5015758;28;20182;-73
2022/08/09 04:37:18;;;;;;;4.93;4.03;;;17.80;67.70;;;;;;5018764;28;20545;-73
2022/08/09 04:39:44;;;;;;;4.63;4.07;;;17.80;68.00;;;;;;5015464;28;20560;-73
2022/08/09 04:42:09;;;;;;;8.20;5.30;;;17.80;68.00;;;;;;5001850;28;20651;-71
2022/08/09 04:44:35;;;;;;;5.83;4.60;;;17.70;68.30;;;;;;5022168;28;20189;-72
2022/08/09 04:47:01;;;;;;;4.57;3.93;;;17.60;68.50;;;;;;5001176;28;20210;-71
2022/08/09 04:49:32;;;;;;;5.40;4.33;;;17.50;68.80;;;;;;5001279;28;20221;-72
2022/08/09 04:51:58;;;;;;;6.07;4.30;;;17.40;69.20;;;;;;5018250;28;20591;-72
2022/08/09 04:54:24;;;;;;;7.03;4.23;;;17.30;69.70;;;;;;5020726;28;20433;-71
2022/08/09 04:56:49;;;;;;;4.90;4.37;;;17.30;69.90;;;;;;5013459;28;20472;-68
2022/08/09 04:59:15;;;;;;;7.50;4.50;;;17.20;69.80;;;;;;5017540;28;20251;-69
2022/08/09 05:01:41;;;;;;;7.87;4.83;;;17.30;69.80;;;;;;5017965;28;20221;-70
2022/08/09 05:04:06;;;;;;;4.87;4.20;;;17.30;69.80;;;;;;5000655;28;20243;-69
2022/08/09 05:06:32;;;;;;;6.50;4.10;;;17.40;69.80;;;;;;5005999;28;20295;-67
2022/08/09 05:08:57;;;;;;;6.23;4.00;;;17.50;69.70;;;;;;5017088;28;20195;-70
2022/08/09 05:11:25;;;;;;;7.10;4.87;;;17.50;69.80;;;;;;5013122;28;20187;-69
2022/08/09 05:13:50;;;;;;;6.60;4.83;;;17.70;69.40;;;;;;5022584;28;20547;-69
2022/08/09 05:16:16;;;;;;;6.87;4.73;;;17.80;69.40;;;;;;5013349;28;20477;-72
2022/08/09 05:18:41;;;;;;;5.83;4.53;;;17.90;68.90;;;;;;5002557;28;20692;-72
2022/08/09 05:21:07;;;;;;;8.67;4.97;;;18.00;68.80;;;;;;4996566;28;20219;-71
2022/08/09 05:23:33;;;;;;;4.50;4.23;;;18.00;68.50;;;;;;5019260;28;20282;-70
2022/08/09 05:25:58;;;;;;;5.07;4.53;;;18.10;68.00;;;;;;5017631;28;20245;-73
2022/08/09 05:28:24;;;;;;;5.27;4.43;;;18.10;67.90;;;;;;5021400;28;20265;-72
2022/08/09 05:30:49;;;;;;;8.13;4.53;;;18.20;67.70;;;;;;5021821;28;20646;-71
2022/08/09 05:33:15;;;;;;;9.80;4.60;;;18.20;67.70;;;;;;5007406;28;20202;-70
2022/08/09 05:35:41;;;;;;;6.40;4.03;;;18.30;67.60;;;;;;5019681;28;20218;-71
2022/08/09 05:38:06;;;;;;;7.53;5.00;;;18.30;67.50;;;;;;5021437;28;20210;-71
2022/08/09 05:40:32;;;;;;;8.10;4.80;;;18.30;67.20;;;;;;5002001;28;20208;-71
2022/08/09 05:42:57;;;;;;;8.10;4.90;;;18.40;66.90;;;;;;5024847;28;20199;-73
2022/08/09 05:45:23;;;;;;;8.20;5.20;;;18.50;66.60;;;;;;5012735;28;21067;-70
2022/08/09 05:47:49;;;;;;;7.23;4.83;;;18.60;66.10;;;;;;5015603;28;20267;-73
2022/08/09 05:50:14;;;;;;;5.90;4.53;;;18.60;66.10;;;;;;5013508;28;20250;-71
2022/08/09 05:52:42;;;;;;;8.20;5.10;;;18.60;66.00;;;;;;5020347;28;20601;-71
2022/08/09 05:55:08;;;;;;;6.07;5.30;;;18.70;66.00;;;;;;5018818;28;20616;-71
2022/08/09 05:57:35;;;;;;;8.33;5.47;;;18.70;66.10;;;;;;5010636;28;20444;-73
2022/08/09 06:00:01;;;;;;;7.30;5.83;;;18.70;65.40;;;;;;5014414;28;20499;-71
2022/08/09 06:02:26;;;;;;;7.03;5.30;;;18.80;65.60;;;;;;5014749;28;20526;-72
2022/08/09 06:04:52;;;;;;;9.13;5.23;;;18.80;65.70;;;;;;5023672;28;20434;-71
2022/08/09 06:07:17;;;;;;;7.23;5.40;;;19.00;65.70;;;;;;5008358;28;20248;-72
2022/08/09 06:09:43;;;;;;;12.97;6.00;;;19.00;65.80;;;;;;5014988;28;20193;-70
2022/08/09 06:12:09;;;;;;;13.27;6.00;;;19.10;65.70;;;;;;5004212;28;20276;-71
2022/08/09 06:14:35;;;;;;;10.70;6.40;;;19.20;65.70;;;;;;5016889;28;20191;-70
2022/08/09 06:17:00;;;;;;;8.30;5.70;;;19.30;65.40;;;;;;5007004;28;20213;-71
2022/08/09 06:19:26;;;;;;;11.10;6.33;;;19.50;64.80;;;;;;5022660;28;20195;-72
2022/08/09 06:21:51;;;;;;;9.37;6.27;;;19.40;64.50;;;;;;5023739;28;20245;-71
2022/08/09 06:24:17;;;;;;;9.73;6.30;;;19.40;64.80;;;;;;5022303;28;20189;-70
2022/08/09 06:26:43;;;;;;;9.10;6.27;;;19.50;64.80;;;;;;5018470;28;20216;-73
2022/08/09 06:29:09;;;;;;;16.07;6.10;;;19.50;64.50;;;;;;4998527;28;20206;-71
2022/08/09 06:31:36;;;;;;;10.30;7.00;;;19.50;64.80;;;;;;5019664;28;20195;-71
2022/08/09 06:34:05;;;;;;;12.30;6.93;;;19.50;64.80;;;;;;5026837;28;20420;-72
2022/08/09 06:36:30;;;;;;;13.70;8.60;;;19.50;65.30;;;;;;5019782;28;20499;-71
2022/08/09 06:38:56;;;;;;;14.00;7.80;;;19.50;65.30;;;;;;5023364;28;20516;-73
2022/08/09 06:41:23;;;;;;;12.77;7.10;;;19.60;65.00;;;;;;5023414;28;20210;-72
2022/08/09 06:43:49;;;;;;;9.97;7.43;;;19.60;64.80;;;;;;5019498;28;20489;-70
2022/08/09 06:46:16;;;;;;;12.27;8.23;;;19.80;64.80;;;;;;5019028;28;20480;-70
2022/08/09 06:48:42;;;;;;;16.63;10.27;;;19.90;64.80;;;;;;5018758;28;20440;-72
2022/08/09 06:51:08;;;;;;;18.00;8.80;;;20.00;63.90;;;;;;5025457;28;20421;-71
2022/08/09 06:53:34;;;;;;;15.70;8.97;;;20.10;63.70;;;;;;5017717;28;20429;-73
2022/08/09 06:56:01;;;;;;;17.07;10.13;;;20.10;63.50;;;;;;5018598;28;20494;-71
2022/08/09 06:58:27;;;;;;;17.93;9.27;;;20.10;63.50;;;;;;5020162;28;20199;-72
2022/08/09 07:00:54;;;;;;;13.80;8.10;;;20.10;63.50;;;;;;5023779;28;21191;-72
2022/08/09 07:03:20;;;;;;;14.90;8.50;;;20.20;63.50;;;;;;5022418;28;20422;-70
2022/08/09 07:05:46;;;;;;;17.47;8.13;;;20.30;63.40;;;;;;5023682;28;20458;-70
2022/08/09 07:08:12;;;;;;;13.70;8.30;;;20.40;63.10;;;;;;5015758;28;20783;-72
2022/08/09 07:10:37;;;;;;;14.40;7.43;;;20.50;62.60;;;;;;5021879;28;20199;-71
2022/08/09 07:13:03;;;;;;;15.13;8.23;;;20.70;62.20;;;;;;5019135;28;20262;-72
2022/08/09 07:15:28;;;;;;;16.23;8.03;;;20.80;61.50;;;;;;5021459;28;20214;-72
2022/08/09 07:17:54;;;;;;;13.73;8.50;;;20.90;61.20;;;;;;5019591;28;20647;-72
2022/08/09 07:20:20;;;;;;;11.43;7.63;;;20.90;60.30;;;;;;5005370;28;20258;-70
2022/08/09 07:22:45;;;;;;;10.23;7.20;;;20.90;60.40;;;;;;5024811;28;20636;-71
2022/08/09 07:25:11;;;;;;;14.20;8.20;;;20.90;60.90;;;;;;5008753;28;20195;-71
2022/08/09 07:27:38;;;;;;;12.03;8.00;;;20.90;60.60;;;;;;5017613;28;20213;-73
2022/08/09 07:30:04;;;;;;;13.40;7.90;;;21.00;60.70;;;;;;5023431;28;20188;-72
2022/08/09 07:32:30;;;;;;;12.97;8.20;;;21.00;60.70;;;;;;5017495;28;20485;-71
2022/08/09 07:34:56;;;;;;;12.07;7.47;;;21.10;60.30;;;;;;5020264;28;20888;-73
2022/08/09 07:37:21;;;;;;;11.67;7.23;;;21.20;60.30;;;;;;5020290;28;20220;-72
2022/08/09 07:39:47;;;;;;;11.70;7.33;;;21.30;59.70;;;;;;5023703;28;20561;-71
2022/08/09 07:42:13;;;;;;;13.23;7.50;;;21.40;59.60;;;;;;5016600;28;20220;-71
2022/08/09 07:44:39;;;;;;;11.23;7.00;;;21.40;59.30;;;;;;5020377;28;20188;-71
2022/08/09 07:47:04;;;;;;;13.07;7.33;;;21.50;59.50;;;;;;5014306;28;20217;-72
2022/08/09 07:49:30;;;;;;;10.60;6.07;;;21.60;59.30;;;;;;5021787;28;20933;-72
2022/08/09 07:51:56;;;;;;;9.50;6.40;;;21.70;59.20;;;;;;5004778;28;20200;-71
2022/08/09 07:54:21;;;;;;;12.63;7.37;;;21.80;58.70;;;;;;5023418;28;20247;-71
2022/08/09 07:56:47;;;;;;;9.60;7.43;;;21.90;58.70;;;;;;5018429;28;20441;-72
2022/08/09 07:59:12;;;;;;;7.20;5.83;;;21.90;58.40;;;;;;5021074;28;20692;-70
2022/08/09 08:01:38;;;;;;;9.70;6.27;;;22.00;58.70;;;;;;5014419;28;20213;-72
2022/08/09 08:04:04;;;;;;;9.00;6.67;;;22.00;58.70;;;;;;5017126;28;20188;-73
2022/08/09 08:06:30;;;;;;;10.30;6.90;;;22.20;58.00;;;;;;5020054;28;20219;-72
2022/08/09 08:08:56;;;;;;;9.90;6.23;;;22.30;58.00;;;;;;4999721;28;20194;-71
2022/08/09 08:11:22;;;;;;;9.60;6.07;;;22.40;57.70;;;;;;5021787;28;20930;-72
2022/08/09 08:13:47;;;;;;;6.23;5.27;;;22.50;57.30;;;;;;5018624;28;20203;-73
2022/08/09 08:16:13;;;;;;;10.17;6.30;;;22.60;56.90;;;;;;5014669;28;20227;-72
2022/08/09 08:18:38;;;;;;;7.50;5.37;;;22.80;56.20;;;;;;5016310;28;20191;-72
2022/08/09 08:21:04;;;;;;;11.10;5.60;;;22.90;56.10;;;;;;5021493;28;20230;-72
2022/08/09 08:23:30;;;;;;;7.33;5.20;;;23.00;55.70;;;;;;5002907;28;20187;-72
2022/08/09 08:25:55;;;;;;;9.53;5.43;;;23.10;55.40;;;;;;5016968;28;20219;-71
2022/08/09 08:28:22;;;;;;;6.03;5.23;;;23.20;55.00;;;;;;5015328;28;20196;-72
2022/08/09 08:30:47;;;;;;;12.60;5.77;;;23.30;55.20;;;;;;5017865;28;20669;-72
2022/08/09 08:33:14;;;;;;;6.63;6.23;;;23.30;54.90;;;;;;5016033;28;20459;-71
2022/08/09 08:35:39;;;;;;;6.30;5.33;;;23.40;54.60;;;;;;5012346;28;20215;-73
2022/08/09 08:38:05;;;;;;;8.30;6.30;;;23.50;54.50;;;;;;5021942;28;20999;-71
2022/08/09 08:40:32;;;;;;;10.10;5.50;;;23.60;54.00;;;;;;5018558;28;20220;-70
2022/08/09 08:42:59;;;;;;;7.50;5.20;;;23.60;53.80;;;;;;5017238;28;20193;-70
2022/08/09 08:45:42;;;;;;;9.60;5.57;;;23.70;53.70;;;;;;5021131;28;20514;-73
2022/08/09 08:48:08;;;;;;;7.03;5.47;;;23.80;53.00;;;;;;5022026;28;20419;-71
2022/08/09 08:50:34;;;;;;;5.57;5.07;;;23.80;52.60;;;;;;5018625;28;20430;-73
2022/08/09 08:53:01;;;;;;;8.50;5.23;;;23.90;52.80;;;;;;5022702;28;20793;-72
2022/08/09 08:55:27;;;;;;;7.07;5.20;;;23.90;52.50;;;;;;4999945;28;20448;-70
2022/08/09 08:57:55;;;;;;;10.03;5.90;;;24.00;52.50;;;;;;5018792;28;20427;-72
2022/08/09 09:00:21;;;;;;;6.77;5.40;;;24.10;52.10;;;;;;5023881;28;20912;-71
2022/08/09 09:02:49;;;;;;;5.77;5.47;;;24.30;51.30;;;;;;5019585;28;20519;-73
2022/08/09 09:05:23;;;;;;;12.33;5.60;;;24.30;51.30;;;;;;5005967;28;20192;-72
2022/08/09 09:07:49;;;;;;;9.40;4.90;;;24.40;51.20;;;;;;5009413;28;20444;-72
2022/08/09 09:10:16;;;;;;;6.00;4.83;;;24.50;50.60;;;;;;5021821;28;20503;-71
2022/08/09 09:12:44;;;;;;;5.93;4.83;;;24.60;50.30;;;;;;5029350;28;20428;-71
2022/08/09 09:15:10;;;;;;;5.63;4.90;;;24.60;50.30;;;;;;5022342;28;20456;-71
2022/08/09 09:17:36;;;;;;;6.60;4.93;;;24.70;50.10;;;;;;5024591;28;20450;-72
2022/08/09 09:20:09;;;;;;;6.87;5.43;;;24.80;49.80;;;;;;5019364;28;20506;-72
2022/08/09 09:22:58;;;;;;;8.90;5.53;;;24.80;49.50;;;;;;5019140;28;20453;-73
2022/08/09 09:25:50;;;;;;;5.83;4.40;;;24.90;49.50;;;;;;4995723;28;20437;-73
2022/08/09 09:28:19;;;;;;;4.33;4.03;;;25.00;49.30;;;;;;5012329;28;20585;-72
2022/08/09 09:30:53;;;;;;;7.93;4.93;;;25.10;48.50;;;;;;5019254;28;20437;-72
2022/08/09 09:33:19;;;;;;;5.67;4.60;;;25.30;47.90;;;;;;5014645;28;20912;-72
2022/08/09 09:35:57;;;;;;;6.60;4.90;;;25.30;47.40;;;;;;5014491;28;20469;-72
2022/08/09 09:38:42;;;;;;;7.23;4.20;;;25.30;47.00;;;;;;5000957;28;20668;-72
2022/08/09 09:41:07;;;;;;;6.37;4.30;;;25.60;46.60;;;;;;5013912;28;20472;-72
2022/08/09 09:43:33;;;;;;;6.17;4.00;;;25.70;43.20;;;;;;5020895;28;20776;-73
2022/08/09 09:46:02;;;;;;;4.70;4.30;;;25.80;42.00;;;;;;5022591;28;20984;-73
2022/08/09 09:48:28;;;;;;;5.97;4.23;;;25.80;41.90;;;;;;5013179;28;20192;-73
2022/08/09 09:50:54;;;;;;;4.90;4.13;;;25.80;42.20;;;;;;5016909;28;21001;-74
2022/08/09 09:53:23;;;;;;;7.70;4.17;;;25.80;42.70;;;;;;5028819;28;20513;-73
2022/08/09 09:55:57;;;;;;;5.30;4.03;;;25.90;42.70;;;;;;5019777;28;20474;-73
2022/08/09 09:58:24;;;;;;;8.27;4.37;;;26.00;42.80;;;;;;5016809;28;21223;-72
2022/08/09 10:00:55;;;;;;;4.40;4.10;;;26.00;42.70;;;;;;5015644;28;20463;-73
2022/08/09 10:03:41;;;;;;;5.50;4.10;;;25.90;43.20;;;;;;5015936;28;20508;-73
2022/08/09 10:06:07;;;;;;;6.60;4.40;;;26.00;43.20;;;;;;5004460;28;20547;-74
2022/08/09 10:08:33;;;;;;;6.50;4.97;;;26.10;43.20;;;;;;5021728;28;20512;-73
2022/08/09 10:10:58;;;;;;;7.10;4.20;;;26.30;43.20;;;;;;5027009;28;20544;-73
2022/08/09 10:13:36;;;;;;;8.13;4.60;;;26.30;43.10;;;;;;5024357;28;20224;-74
2022/08/09 10:16:02;;;;;;;4.43;3.80;;;26.30;42.60;;;;;;5021414;28;20215;-74
2022/08/09 10:18:27;;;;;;;5.93;4.20;;;26.50;42.30;;;;;;5020296;28;20531;-74
2022/08/09 10:20:53;;;;;;;6.03;4.50;;;26.60;41.40;;;;;;5024505;28;20221;-72
2022/08/09 10:23:21;;;;;;;6.07;5.43;;;26.60;41.20;;;;;;5022539;28;20694;-74
2022/08/09 10:25:48;;;;;;;5.37;3.80;;;27.00;40.70;;;;;;5024506;28;20200;-75
2022/08/09 10:28:14;;;;;;;10.80;4.47;;;27.30;38.40;;;;;;5035909;28;20523;-73
2022/08/09 10:30:41;;;;;;;4.80;3.83;;;27.50;38.20;;;;;;5028645;28;20471;-72
2022/08/09 10:33:07;;;;;;;4.40;3.70;;;27.70;38.00;;;;;;5032651;28;20197;-73
2022/08/09 10:35:33;;;;;;;3.97;3.47;;;27.80;38.20;;;;;;5020863;28;20490;-74
2022/08/09 10:38:02;;;;;;;3.73;3.60;;;27.80;38.00;;;;;;5024641;28;20524;-74
2022/08/09 10:40:28;;;;;;;5.73;3.87;;;28.00;37.50;;;;;;5024999;28;20492;-75
2022/08/09 10:42:54;;;;;;;5.60;3.97;;;28.30;36.80;;;;;;5014946;28;20421;-74
2022/08/09 10:45:21;;;;;;;6.10;4.17;;;28.50;36.70;;;;;;5028304;28;20439;-72
2022/08/09 10:48:06;;;;;;;5.10;4.20;;;28.60;36.20;;;;;;5022696;28;20194;-73
2022/08/09 10:54:04;;;;;;;5.40;3.23;;;29.10;35.30;;;;;;5033614;28;20793;-74
2022/08/09 10:56:38;;;;;;;4.37;3.87;;;29.10;34.90;;;;;;5014153;28;20467;-74
2022/08/09 10:59:29;;;;;;;6.57;4.83;;;28.70;35.10;;;;;;5022554;28;20981;-72
2022/08/09 11:01:55;;;;;;;8.10;3.90;;;28.00;37.00;;;;;;5025352;28;20579;-73
2022/08/09 11:04:26;;;;;;;7.03;4.57;;;28.10;36.80;;;;;;5045962;28;20420;-72
2022/08/09 11:06:57;;;;;;;4.50;4.03;;;28.30;36.20;;;;;;5031159;28;20491;-73
2022/08/09 11:09:41;;;;;;;5.23;3.57;;;28.80;35.20;;;;;;5038551;28;20447;-71
2022/08/09 11:12:16;;;;;;;3.90;3.43;;;29.50;33.70;;;;;;5027962;28;20435;-73
2022/08/09 11:14:50;;;;;;;5.80;3.50;;;29.80;32.40;;;;;;5035367;28;20526;-73
2022/08/09 11:17:15;;;;;;;4.53;3.33;;;29.50;31.70;;;;;;5020902;28;20470;-72
2022/08/09 11:19:54;;;;;;;4.23;3.17;;;29.50;31.70;;;;;;5025654;28;20441;-72
2022/08/09 11:22:39;;;;;;;5.17;3.70;;;29.40;31.60;;;;;;5034113;28;20325;-73
2022/08/09 11:25:11;;;;;;;4.30;3.13;;;28.70;32.70;;;;;;5035571;28;20416;-73
2022/08/09 11:27:42;;;;;;;4.03;3.13;;;28.70;32.40;;;;;;5027578;28;20857;-73
2022/08/09 11:30:09;;;;;;;4.87;3.33;;;28.80;32.40;;;;;;5030344;28;20424;-74
2022/08/09 11:32:49;;;;;;;6.63;3.40;;;28.90;31.30;;;;;;5029464;28;20435;-72
2022/08/09 11:35:26;;;;;;;5.40;4.03;;;28.90;31.90;;;;;;5032162;28;20423;-72
2022/08/09 11:37:56;;;;;;;5.33;3.33;;;28.70;32.40;;;;;;5004208;28;20787;-76
2022/08/09 11:40:21;;;;;;;5.70;3.37;;;28.70;32.90;;;;;;5028205;28;20508;-71
2022/08/09 11:42:52;;;;;;;5.40;3.60;;;28.40;33.30;;;;;;5020120;28;20908;-72
2022/08/09 11:45:24;;;;;;;5.07;3.97;;;28.20;33.50;;;;;;5019465;28;20247;-74
2022/08/09 11:47:56;;;;;;;4.77;3.47;;;28.20;33.90;;;;;;5019150;28;20421;-73
2022/08/09 11:50:23;;;;;;;3.90;3.03;;;28.40;33.10;;;;;;5016645;28;20422;-73
2022/08/09 11:52:57;;;;;;;5.27;3.47;;;28.60;32.80;;;;;;5027545;28;20507;-73
2022/08/09 11:55:32;;;;;;;4.40;3.00;;;29.00;32.10;;;;;;5021665;28;20452;-72
2022/08/09 11:58:22;;;;;;;4.10;3.50;;;28.90;32.40;;;;;;5019408;28;20922;-73
2022/08/09 12:00:47;;;;;;;4.27;3.37;;;29.00;32.30;;;;;;4982882;28;20475;-73
2022/08/09 12:03:24;;;;;;;3.67;2.80;;;29.70;31.90;;;;;;5000865;28;20433;-72
2022/08/09 12:05:54;;;;;;;6.97;3.17;;;29.80;31.20;;;;;;5016230;28;20743;-74
2022/08/09 12:08:21;;;;;;;9.50;4.13;;;30.10;31.20;;;;;;5006215;28;20838;-72
2022/08/09 12:10:51;;;;;;;3.30;3.20;;;30.10;31.30;;;;;;5024330;28;20911;-75
2022/08/09 12:13:37;;;;;;;5.83;3.70;;;29.90;31.20;;;;;;5029152;28;20452;-74
2022/08/09 12:16:05;;;;;;;4.00;2.73;;;29.80;31.70;;;;;;5025920;28;20475;-73
2022/08/09 12:18:32;;;;;;;5.10;3.77;;;30.30;30.90;;;;;;5016078;28;20529;-72
2022/08/09 12:20:59;;;;;;;7.03;3.40;;;30.70;30.50;;;;;;5017718;28;20535;-72
2022/08/09 12:23:25;;;;;;;3.80;3.60;;;30.50;30.30;;;;;;5014554;28;20456;-71
2022/08/09 12:25:53;;;;;;;3.90;3.30;;;30.10;30.90;;;;;;4999425;28;20492;-72
2022/08/09 12:28:20;;;;;;;6.10;3.30;;;30.30;30.30;;;;;;5023357;28;20201;-74
2022/08/09 12:30:47;;;;;;;4.17;2.97;;;30.50;30.30;;;;;;5017501;28;20478;-71
2022/08/09 12:33:14;;;;;;;4.20;3.10;;;30.60;30.40;;;;;;5018272;28;20436;-74
2022/08/09 12:35:41;;;;;;;3.80;3.30;;;31.00;29.30;;;;;;5013618;28;20538;-73
2022/08/09 12:38:21;;;;;;;5.03;3.47;;;31.10;29.30;;;;;;5021899;28;20451;-71
2022/08/09 12:40:49;;;;;;;6.23;3.67;;;31.10;29.60;;;;;;5020177;28;20308;-72
2022/08/09 12:43:20;;;;;;;5.40;3.67;;;31.20;29.50;;;;;;5026939;28;20417;-71
2022/08/09 12:45:49;;;;;;;4.80;3.60;;;31.40;29.80;;;;;;5017745;28;21009;-72
2022/08/09 12:48:16;;;;;;;6.70;3.60;;;31.60;29.10;;;;;;5019571;28;20885;-72
2022/08/09 12:50:43;;;;;;;5.57;2.90;;;30.50;29.90;;;;;;5016837;28;20471;-71
2022/08/09 12:53:36;;;;;;;3.90;3.70;;;30.10;30.70;;;;;;5027242;28;20436;-73
2022/08/09 12:56:11;;;;;;;6.80;3.60;;;30.60;30.10;;;;;;5017777;28;20471;-71
2022/08/09 12:58:39;;;;;;;5.70;3.30;;;30.30;30.30;;;;;;5020348;28;20455;-72